createdAt,value
2022-11-28T00:02:13.182Z,5.26
2022-11-28T00:04:39.882Z,5.27
2022-11-28T00:07:06.765Z,5.29
2022-11-28T00:09:33.155Z,5.28
2022-11-28T00:11:59.504Z,5.20
2022-11-28T00:14:25.964Z,5.22
2022-11-28T00:16:52.315Z,5.27
2022-11-28T00:19:18.678Z,5.27
2022-11-28T00:21:45.040Z,5.26
2022-11-28T00:24:11.488Z,5.25
2022-11-28T00:26:39.516Z,5.22
2022-11-28T00:29:06.215Z,5.19
2022-11-28T00:31:35.842Z,5.18
2022-11-28T00:34:02.500Z,5.12
2022-11-28T00:36:29.068Z,5.18
2022-11-28T00:38:55.454Z,5.23
2022-11-28T00:41:27.004Z,5.26
2022-11-28T00:43:53.418Z,5.25
2022-11-28T00:46:20.559Z,5.22
2022-11-28T00:48:47.068Z,5.25
2022-11-28T00:51:23.727Z,5.15
2022-11-28T00:53:50.984Z,5.17
2022-11-28T00:56:19.552Z,5.20
2022-11-28T00:58:46.050Z,5.17
2022-11-28T01:01:20.364Z,5.12
2022-11-28T01:03:47.374Z,5.15
2022-11-28T01:06:13.834Z,5.22
2022-11-28T01:08:41.371Z,5.19
2022-11-28T01:11:12.273Z,5.22
2022-11-28T01:13:39.442Z,5.21
2022-11-28T01:16:06.299Z,5.16
2022-11-28T01:18:32.727Z,5.20
2022-11-28T01:20:59.068Z,5.22
2022-11-28T01:23:25.476Z,5.19
2022-11-28T01:25:51.836Z,5.19
2022-11-28T01:28:18.204Z,5.21
2022-11-28T01:30:44.553Z,5.21
2022-11-28T01:33:10.917Z,5.23
2022-11-28T01:35:37.263Z,5.24
2022-11-28T01:38:03.610Z,5.25
2022-11-28T01:40:30.023Z,5.27
2022-11-28T01:42:56.393Z,5.26
2022-11-28T01:45:28.254Z,5.18
2022-11-28T01:47:56.269Z,5.15
2022-11-28T01:50:22.657Z,5.14
2022-11-28T01:52:50.325Z,5.11
2022-11-28T01:55:17.815Z,5.07
2022-11-28T01:57:44.169Z,5.11
2022-11-28T02:00:18.638Z,5.11
2022-11-28T02:02:44.959Z,5.08
2022-11-28T02:05:11.504Z,5.09
2022-11-28T02:07:37.954Z,5.04
2022-11-28T02:10:06.458Z,5.05
2022-11-28T02:12:40.688Z,5.07
2022-11-28T02:15:35.242Z,5.05
2022-11-28T02:18:18.141Z,5.07
2022-11-28T02:21:10.154Z,5.08
2022-11-28T02:23:42.274Z,5.04
2022-11-28T02:26:33.022Z,5.06
2022-11-28T02:29:20.665Z,5.08
2022-11-28T02:32:13.827Z,5.09
2022-11-28T02:35:08.559Z,5.10
2022-11-28T02:37:39.849Z,5.10
2022-11-28T02:40:18.383Z,5.03
2022-11-28T02:42:50.765Z,5.04
2022-11-28T02:45:23.732Z,4.97
2022-11-28T02:48:07.341Z,5.01
2022-11-28T02:50:38.522Z,4.97
2022-11-28T02:53:11.625Z,4.97
2022-11-28T02:55:40.055Z,4.95
2022-11-28T02:58:06.683Z,4.95
2022-11-28T03:00:35.112Z,4.97
2022-11-28T03:03:10.466Z,4.99
2022-11-28T03:05:47.294Z,5.03
2022-11-28T03:08:22.758Z,5.00
2022-11-28T03:11:27.429Z,4.89
2022-11-28T03:13:59.813Z,4.79
2022-11-28T03:16:31.269Z,4.80
2022-11-28T03:19:16.256Z,4.82
2022-11-28T03:22:01.574Z,4.90
2022-11-28T03:24:38.967Z,4.94
2022-11-28T03:27:17.437Z,4.97
2022-11-28T03:29:52.570Z,4.88
2022-11-28T03:32:24.548Z,4.86
2022-11-28T03:34:54.217Z,4.92
2022-11-28T03:37:23.549Z,4.98
2022-11-28T03:39:53.124Z,4.99
2022-11-28T03:42:21.847Z,4.99
2022-11-28T03:44:52.149Z,5.02
2022-11-28T03:47:18.513Z,5.07
2022-11-28T03:49:48.189Z,5.07
2022-11-28T03:52:16.886Z,5.07
2022-11-28T03:54:55.889Z,5.07
2022-11-28T03:57:38.489Z,5.01
2022-11-28T04:00:09.331Z,4.99
2022-11-28T04:02:40.993Z,5.00
2022-11-28T04:05:24.807Z,5.01
2022-11-28T04:07:52.703Z,4.99
2022-11-28T04:10:21.837Z,4.96
2022-11-28T04:12:53.581Z,4.97
2022-11-28T04:15:23.315Z,4.92
2022-11-28T04:17:53.908Z,4.92
2022-11-28T04:20:31.398Z,4.90
2022-11-28T04:23:01.448Z,4.93
2022-11-28T04:25:28.044Z,4.92
2022-11-28T04:27:57.692Z,4.92
2022-11-28T04:30:24.069Z,4.88
2022-11-28T04:32:52.137Z,4.90
2022-11-28T04:35:36.509Z,4.92
2022-11-28T04:38:02.938Z,4.97
2022-11-28T04:40:30.570Z,5.02
2022-11-28T04:43:08.848Z,5.04
2022-11-28T04:45:46.845Z,5.06
2022-11-28T04:48:13.217Z,5.05
2022-11-28T04:50:47.516Z,5.05
2022-11-28T04:53:29.928Z,5.06
2022-11-28T04:56:01.023Z,5.06
2022-11-28T04:58:39.454Z,5.06
2022-11-28T05:01:07.062Z,5.02
2022-11-28T05:03:33.507Z,4.98
2022-11-28T05:05:59.880Z,4.97
2022-11-28T05:08:26.341Z,4.98
2022-11-28T05:10:52.734Z,5.00
2022-11-28T05:13:19.114Z,5.00
2022-11-28T05:15:45.495Z,4.99
2022-11-28T05:18:11.889Z,4.97
2022-11-28T05:20:38.529Z,4.95
2022-11-28T05:23:04.886Z,4.94
2022-11-28T05:25:31.238Z,4.91
2022-11-28T05:27:57.623Z,4.93
2022-11-28T05:30:23.987Z,4.91
2022-11-28T05:32:50.356Z,4.89
2022-11-28T05:35:16.852Z,4.88
2022-11-28T05:37:43.218Z,4.89
2022-11-28T05:40:09.790Z,4.90
2022-11-28T05:42:36.439Z,4.79
2022-11-28T05:45:03.105Z,4.83
2022-11-28T05:47:32.789Z,4.81
2022-11-28T05:49:59.273Z,4.77
2022-11-28T05:52:25.732Z,4.76
2022-11-28T05:54:52.224Z,4.76
2022-11-28T05:57:18.569Z,4.74
2022-11-28T05:59:45.214Z,4.70
2022-11-28T06:02:11.831Z,4.67
2022-11-28T06:04:38.266Z,4.73
2022-11-28T06:07:04.652Z,4.72
2022-11-28T06:09:31.027Z,4.70
2022-11-28T06:11:57.427Z,4.71
2022-11-28T06:14:23.876Z,4.66
2022-11-28T06:16:50.286Z,4.66
2022-11-28T06:19:16.692Z,4.66
2022-11-28T06:21:43.314Z,4.63
2022-11-28T06:24:09.999Z,4.64
2022-11-28T06:26:36.491Z,4.64
2022-11-28T06:29:02.905Z,4.63
2022-11-28T06:31:30.634Z,4.62
2022-11-28T06:33:57.850Z,4.61
2022-11-28T06:36:26.008Z,4.63
2022-11-28T06:38:52.426Z,4.65
2022-11-28T06:41:19.368Z,4.63
2022-11-28T06:43:45.770Z,4.62
2022-11-28T06:46:16.615Z,4.59
2022-11-28T06:48:44.018Z,4.60
2022-11-28T06:51:10.609Z,4.60
2022-11-28T06:53:36.992Z,4.60
2022-11-28T06:56:11.168Z,4.60
2022-11-28T06:58:37.536Z,4.65
2022-11-28T07:01:07.805Z,4.69
2022-11-28T07:03:34.262Z,4.72
2022-11-28T07:06:02.140Z,4.74
2022-11-28T07:08:28.610Z,4.76
2022-11-28T07:10:57.376Z,4.74
2022-11-28T07:13:24.631Z,4.79
2022-11-28T07:15:51.539Z,4.80
2022-11-28T07:18:17.961Z,4.87
2022-11-28T07:20:44.334Z,4.90
2022-11-28T07:23:10.682Z,4.94
2022-11-28T07:25:37.034Z,4.92
2022-11-28T07:28:03.427Z,4.94
2022-11-28T07:30:29.775Z,4.95
2022-11-28T07:32:56.148Z,4.96
2022-11-28T07:35:22.501Z,5.03
2022-11-28T07:37:48.864Z,5.01
2022-11-28T07:40:15.261Z,5.01
2022-11-28T07:42:41.661Z,5.00
2022-11-28T07:45:08.637Z,5.05
2022-11-28T07:47:35.037Z,5.03
2022-11-28T07:50:01.388Z,5.07
2022-11-28T07:52:27.724Z,5.05
2022-11-28T07:54:54.115Z,5.08
2022-11-28T07:57:20.444Z,5.13
2022-11-28T07:59:46.814Z,5.14
2022-11-28T08:02:13.505Z,5.13
2022-11-28T08:04:45.917Z,5.11
2022-11-28T08:07:14.956Z,5.09
2022-11-28T08:09:41.604Z,5.05
2022-11-28T08:12:08.210Z,5.08
2022-11-28T08:14:34.604Z,5.01
2022-11-28T08:17:01.055Z,5.01
2022-11-28T08:19:31.956Z,5.00
2022-11-28T08:22:00.205Z,5.01
2022-11-28T08:24:27.191Z,5.02
2022-11-28T08:26:53.559Z,5.03
2022-11-28T08:29:19.962Z,5.02
2022-11-28T08:31:46.317Z,5.02
2022-11-28T08:34:12.812Z,5.05
2022-11-28T08:36:39.617Z,5.06
2022-11-28T08:41:54.162Z,5.11
2022-11-28T08:44:20.507Z,5.15
2022-11-28T08:46:46.918Z,5.17
2022-11-28T08:49:13.285Z,5.20
2022-11-28T08:51:39.744Z,5.17
2022-11-28T08:54:06.250Z,5.21
2022-11-28T08:56:32.648Z,5.21
2022-11-28T08:58:58.992Z,5.24
2022-11-28T09:01:25.861Z,5.26
2022-11-28T09:03:52.949Z,5.27
2022-11-28T09:06:20.536Z,5.30
2022-11-28T09:08:47.008Z,5.33
2022-11-28T09:11:15.632Z,5.37
2022-11-28T09:13:41.994Z,5.39
2022-11-28T09:16:08.562Z,5.40
2022-11-28T09:18:34.932Z,5.38
2022-11-28T09:21:02.615Z,5.43
2022-11-28T09:23:29.214Z,5.44
2022-11-28T09:25:56.029Z,5.44
2022-11-28T09:28:22.610Z,5.46
2022-11-28T09:30:48.990Z,5.48
2022-11-28T09:33:15.497Z,5.48
2022-11-28T09:35:41.906Z,5.47
2022-11-28T09:38:08.260Z,5.46
2022-11-28T09:40:36.105Z,5.44
2022-11-28T09:43:03.269Z,5.42
2022-11-28T09:45:29.707Z,5.44
2022-11-28T09:47:59.465Z,5.46
2022-11-28T09:50:28.252Z,5.49
2022-11-28T09:52:57.810Z,5.47
2022-11-28T09:55:40.175Z,5.48
2022-11-28T09:58:19.572Z,5.51
2022-11-28T10:01:10.675Z,5.47
2022-11-28T10:03:58.517Z,5.47
2022-11-28T10:07:09.485Z,5.51
2022-11-28T10:09:51.786Z,5.56
2022-11-28T10:12:32.233Z,5.61
2022-11-28T10:15:04.993Z,5.64
2022-11-28T10:17:59.914Z,5.67
2022-11-28T10:20:47.021Z,5.70
2022-11-28T10:23:22.221Z,5.74
2022-11-28T10:26:02.267Z,5.75
2022-11-28T10:28:31.414Z,5.77
2022-11-28T10:31:10.203Z,5.84
2022-11-28T10:33:39.494Z,5.91
2022-11-28T10:36:06.051Z,5.93
2022-11-28T10:38:34.051Z,5.98
2022-11-28T10:41:03.512Z,5.98
2022-11-28T10:43:48.648Z,6.03
2022-11-28T10:46:30.243Z,6.07
2022-11-28T10:49:02.345Z,6.10
2022-11-28T10:51:31.784Z,6.15
2022-11-28T10:54:02.610Z,6.18
2022-11-28T10:56:57.653Z,6.16
2022-11-28T10:59:36.744Z,6.23
2022-11-28T11:02:22.486Z,6.27
2022-11-28T11:04:48.943Z,6.30
2022-11-28T11:07:29.070Z,6.31
2022-11-28T11:10:00.097Z,6.35
2022-11-28T11:12:27.365Z,6.35
2022-11-28T11:14:53.752Z,6.37
2022-11-28T11:17:36.238Z,6.40
2022-11-28T11:20:10.393Z,6.42
2022-11-28T11:22:36.762Z,6.44
2022-11-28T11:25:16.676Z,6.45
2022-11-28T11:27:53.411Z,6.44
2022-11-28T11:30:33.548Z,6.47
2022-11-28T11:33:01.368Z,6.53
2022-11-28T11:35:33.616Z,6.57
2022-11-28T11:38:27.701Z,6.61
2022-11-28T11:40:54.062Z,6.58
2022-11-28T11:43:27.418Z,6.58
2022-11-28T11:46:14.102Z,6.57
2022-11-28T11:48:41.247Z,6.55
2022-11-28T11:51:39.423Z,6.55
2022-11-28T11:54:16.872Z,6.60
2022-11-28T11:56:47.324Z,6.61
2022-11-28T11:59:15.602Z,6.59
2022-11-28T12:01:42.904Z,6.60
2022-11-28T12:04:37.549Z,6.64
2022-11-28T12:07:02.830Z,6.67
2022-11-28T12:09:42.074Z,6.66
2022-11-28T12:12:26.606Z,6.63
2022-11-28T12:14:53.003Z,6.65
2022-11-28T12:17:49.398Z,6.71
2022-11-28T12:20:26.119Z,6.73
2022-11-28T12:23:23.987Z,6.73
2022-11-28T12:25:55.425Z,6.73
2022-11-28T12:28:46.997Z,6.76
2022-11-28T12:31:32.345Z,6.79
2022-11-28T12:34:10.792Z,6.80
2022-11-28T12:36:52.167Z,6.77
2022-11-28T12:39:31.702Z,6.81
2022-11-28T12:42:22.833Z,6.81
2022-11-28T12:45:04.511Z,6.80
2022-11-28T12:47:42.771Z,6.81
2022-11-28T12:50:23.822Z,6.83
2022-11-28T12:53:22.209Z,6.82
2022-11-28T12:55:52.007Z,6.81
2022-11-28T12:58:26.437Z,6.84
2022-11-28T13:01:27.392Z,6.73
2022-11-28T13:04:20.120Z,6.67
2022-11-28T13:07:04.663Z,6.71
2022-11-28T13:09:37.649Z,6.69
2022-11-28T13:12:30.759Z,6.72
2022-11-28T13:15:13.736Z,6.76
2022-11-28T13:17:47.859Z,6.75
2022-11-28T13:20:38.935Z,6.72
2022-11-28T13:23:29.025Z,6.74
2022-11-28T13:26:03.351Z,6.75
2022-11-28T13:28:49.564Z,6.73
2022-11-28T13:31:32.525Z,6.73
2022-11-28T13:33:59.001Z,6.76
2022-11-28T13:40:17.935Z,6.76
2022-11-28T13:43:03.074Z,6.75
2022-11-28T13:45:32.407Z,6.64
2022-11-28T13:48:00.281Z,6.52
2022-11-28T13:50:33.821Z,6.55
2022-11-28T13:53:06.248Z,6.56
2022-11-28T13:55:46.611Z,6.56
2022-11-28T13:58:24.680Z,6.58
2022-11-28T14:01:11.732Z,6.60
2022-11-28T14:03:51.390Z,6.60
2022-11-28T14:06:39.887Z,6.60
2022-11-28T14:09:16.355Z,6.59
2022-11-28T14:11:54.743Z,6.56
2022-11-28T14:14:46.112Z,6.57
2022-11-28T14:18:10.347Z,6.52
2022-11-28T14:21:00.205Z,6.50
2022-11-28T14:23:44.367Z,6.46
2022-11-28T14:26:32.955Z,6.44
2022-11-28T14:28:59.584Z,6.33
2022-11-28T14:31:31.921Z,6.32
2022-11-28T14:34:03.454Z,6.30
2022-11-28T14:36:33.624Z,6.30
2022-11-28T14:39:15.807Z,6.26
2022-11-28T14:42:04.191Z,6.25
2022-11-28T14:44:52.474Z,6.22
2022-11-28T14:47:21.952Z,6.18
2022-11-28T14:49:48.672Z,6.14
2022-11-28T14:52:40.316Z,6.16
2022-11-28T14:55:10.329Z,6.13
2022-11-28T14:57:41.368Z,6.08
2022-11-28T15:00:15.201Z,6.00
2022-11-28T15:02:48.955Z,5.99
2022-11-28T15:05:33.598Z,5.96
2022-11-28T15:08:12.276Z,5.91
2022-11-28T15:10:51.352Z,5.85
2022-11-28T15:13:42.548Z,5.85
2022-11-28T15:16:13.464Z,5.85
2022-11-28T15:18:45.065Z,5.80
2022-11-28T15:21:12.144Z,5.76
2022-11-28T15:23:38.539Z,5.71
2022-11-28T15:26:05.445Z,5.68
2022-11-28T15:28:36.026Z,5.63
2022-11-28T15:31:06.935Z,5.59
2022-11-28T15:33:33.799Z,5.52
2022-11-28T15:36:16.911Z,5.48
2022-11-28T15:38:43.305Z,5.43
2022-11-28T15:41:09.718Z,5.38
2022-11-28T15:43:36.536Z,5.40
2022-11-28T15:46:02.989Z,5.38
2022-11-28T15:48:39.715Z,5.34
2022-11-28T15:51:06.736Z,5.27
2022-11-28T15:53:33.141Z,5.24
2022-11-28T15:56:15.638Z,5.25
2022-11-28T15:58:42.954Z,5.23
2022-11-28T16:01:19.424Z,5.22
2022-11-28T16:04:05.616Z,5.17
2022-11-28T16:06:33.951Z,5.14
2022-11-28T16:09:03.986Z,5.12
2022-11-28T16:11:30.772Z,5.10
2022-11-28T16:13:58.379Z,5.10
2022-11-28T16:16:27.618Z,5.06
2022-11-28T16:19:05.770Z,5.07
2022-11-28T16:21:45.018Z,5.09
2022-11-28T16:24:27.082Z,5.07
2022-11-28T16:26:55.633Z,5.02
2022-11-28T16:29:23.492Z,5.02
2022-11-28T16:31:50.113Z,5.02
2022-11-28T16:34:16.604Z,5.02
2022-11-28T16:36:49.441Z,5.01
2022-11-28T16:39:16.665Z,4.98
2022-11-28T16:41:48.686Z,4.95
2022-11-28T16:44:15.825Z,4.95
2022-11-28T16:46:49.172Z,4.94
2022-11-28T16:49:35.564Z,4.91
2022-11-28T16:52:20.719Z,4.88
2022-11-28T16:54:48.050Z,4.88
2022-11-28T16:57:14.730Z,4.88
2022-11-28T16:59:42.498Z,4.87
2022-11-28T17:02:22.811Z,4.80
2022-11-28T17:04:50.561Z,4.74
2022-11-28T17:07:19.143Z,4.79
2022-11-28T17:09:46.777Z,4.82
2022-11-28T17:12:22.736Z,4.83
2022-11-28T17:14:49.104Z,4.84
2022-11-28T17:17:16.125Z,4.85
2022-11-28T17:19:43.122Z,4.85
2022-11-28T17:22:14.514Z,4.80
2022-11-28T17:24:40.921Z,4.75
2022-11-28T17:27:10.120Z,4.74
2022-11-28T17:29:36.650Z,4.77
2022-11-28T17:32:03.456Z,4.80
2022-11-28T17:34:31.835Z,4.83
2022-11-28T17:36:59.048Z,4.85
2022-11-28T17:39:25.497Z,4.85
2022-11-28T17:41:51.955Z,4.87
2022-11-28T17:44:21.882Z,4.89
2022-11-28T17:46:49.213Z,4.90
2022-11-28T17:49:15.604Z,4.90
2022-11-28T17:51:42.038Z,4.88
2022-11-28T17:54:08.638Z,4.92
2022-11-28T17:56:35.040Z,4.91
2022-11-28T17:59:01.596Z,4.88
2022-11-28T18:01:29.459Z,4.83
2022-11-28T18:03:56.078Z,4.79
2022-11-28T18:06:22.722Z,4.76
2022-11-28T18:08:50.365Z,4.79
2022-11-28T18:11:17.722Z,4.75
2022-11-28T18:13:44.274Z,4.71
2022-11-28T18:16:14.640Z,4.68
2022-11-28T18:18:41.033Z,4.66
2022-11-28T18:21:08.694Z,4.62
2022-11-28T18:23:42.234Z,4.61
2022-11-28T18:26:09.373Z,4.57
2022-11-28T18:28:35.987Z,4.55
2022-11-28T18:31:08.730Z,4.55
2022-11-28T18:33:35.063Z,4.51
2022-11-28T18:36:15.443Z,4.47
2022-11-28T18:38:42.130Z,4.45
2022-11-28T18:41:09.434Z,4.45
2022-11-28T18:43:36.158Z,4.43
2022-11-28T18:46:06.730Z,4.44
2022-11-28T18:48:33.973Z,4.44
2022-11-28T18:51:00.361Z,4.45
2022-11-28T18:53:26.767Z,4.50
2022-11-28T18:56:01.373Z,4.54
2022-11-28T18:58:27.890Z,4.56
2022-11-28T19:00:54.298Z,4.57
2022-11-28T19:03:20.786Z,4.57
2022-11-28T19:05:47.153Z,4.56
2022-11-28T19:08:13.495Z,4.55
2022-11-28T19:10:39.996Z,4.53
2022-11-28T19:13:06.380Z,4.50
2022-11-28T19:15:32.747Z,4.48
2022-11-28T19:17:59.097Z,4.42
2022-11-28T19:20:25.486Z,4.41
2022-11-28T19:22:52.948Z,4.42
2022-11-28T19:25:19.487Z,4.44
2022-11-28T19:27:45.833Z,4.44
2022-11-28T19:30:13.282Z,4.45
2022-11-28T19:32:39.622Z,4.49
2022-11-28T19:35:06.472Z,4.51
2022-11-28T19:37:32.815Z,4.53
2022-11-28T19:40:02.538Z,4.55
2022-11-28T19:42:29.656Z,4.57
2022-11-28T19:44:56.056Z,4.60
2022-11-28T19:47:22.860Z,4.62
2022-11-28T19:49:49.206Z,4.66
2022-11-28T19:52:15.573Z,4.69
2022-11-28T19:54:42.009Z,4.73
2022-11-28T19:57:11.173Z,4.77
2022-11-28T19:59:37.529Z,4.79
2022-11-28T20:02:05.916Z,4.75
2022-11-28T20:04:32.312Z,4.74
2022-11-28T20:06:58.682Z,4.78
2022-11-28T20:09:25.031Z,4.79
2022-11-28T20:11:51.381Z,4.83
2022-11-28T20:14:19.013Z,4.84
2022-11-28T20:16:45.531Z,4.83
2022-11-28T20:19:12.307Z,4.85
2022-11-28T20:21:38.748Z,4.88
2022-11-28T20:24:07.257Z,4.91
2022-11-28T20:26:35.139Z,4.89
2022-11-28T20:29:01.597Z,4.90
2022-11-28T20:31:33.723Z,4.86
2022-11-28T20:34:00.376Z,4.86
2022-11-28T20:36:27.592Z,4.89
2022-11-28T20:38:54.714Z,4.93
2022-11-28T20:41:22.028Z,4.94
2022-11-28T20:43:48.580Z,4.96
2022-11-28T20:46:35.367Z,4.97
2022-11-28T20:49:03.378Z,4.97
2022-11-28T20:51:30.626Z,4.97
2022-11-28T20:53:57.912Z,4.96
2022-11-28T20:56:25.794Z,4.94
2022-11-28T20:58:52.228Z,4.92
2022-11-28T21:01:20.382Z,4.94
2022-11-28T21:03:46.871Z,4.95
2022-11-28T21:06:13.319Z,4.99
2022-11-28T21:08:39.906Z,5.00
2022-11-28T21:11:06.795Z,5.00
2022-11-28T21:13:33.277Z,5.01
2022-11-28T21:16:04.622Z,5.01
2022-11-28T21:18:31.057Z,5.02
2022-11-28T21:20:57.414Z,5.03
2022-11-28T21:23:23.780Z,5.02
2022-11-28T21:25:50.146Z,5.01
2022-11-28T21:28:16.563Z,4.99
2022-11-28T21:30:45.336Z,4.98
2022-11-28T21:33:11.905Z,5.03
2022-11-28T21:35:39.106Z,5.05
2022-11-28T21:38:05.810Z,5.07
2022-11-28T21:40:32.268Z,5.06
2022-11-28T21:42:58.630Z,5.04
2022-11-28T21:45:25.037Z,5.02
2022-11-28T21:47:51.602Z,5.04
2022-11-28T21:50:18.177Z,5.05
2022-11-28T21:52:44.505Z,5.07
2022-11-28T21:55:10.921Z,5.02
2022-11-28T21:57:37.425Z,5.04
2022-11-28T22:00:04.438Z,5.04
2022-11-28T22:02:31.198Z,5.08
2022-11-28T22:04:58.892Z,5.08
2022-11-28T22:07:25.357Z,5.07
2022-11-28T22:09:51.738Z,5.07
2022-11-28T22:12:18.111Z,5.09
2022-11-28T22:14:44.534Z,5.09
2022-11-28T22:17:10.996Z,5.08
2022-11-28T22:19:37.346Z,5.04
2022-11-28T22:22:03.725Z,5.04
2022-11-28T22:24:30.107Z,5.04
2022-11-28T22:26:56.566Z,5.05
2022-11-28T22:29:23.076Z,5.06
2022-11-28T22:31:49.488Z,5.09
2022-11-28T22:34:15.886Z,5.09
2022-11-28T22:36:42.248Z,5.10
2022-11-28T22:39:09.494Z,5.11
2022-11-28T22:41:35.864Z,5.11
2022-11-28T22:44:03.823Z,5.12
2022-11-28T22:46:31.030Z,5.12
2022-11-28T22:48:59.168Z,5.11
2022-11-28T22:51:25.628Z,5.13
2022-11-28T22:53:55.888Z,5.04
2022-11-28T22:56:22.333Z,5.07
2022-11-28T22:58:48.863Z,5.08
2022-11-28T23:01:17.510Z,5.11
2022-11-28T23:03:44.613Z,5.13
2022-11-28T23:06:18.281Z,5.11
2022-11-28T23:08:44.772Z,5.13
2022-11-28T23:11:13.606Z,5.13
2022-11-28T23:13:40.154Z,5.16
2022-11-28T23:16:09.759Z,5.12
2022-11-28T23:18:36.135Z,5.16
2022-11-28T23:21:02.472Z,5.18
2022-11-28T23:23:31.698Z,5.18
2022-11-28T23:26:05.133Z,5.20
2022-11-28T23:28:32.683Z,5.18
2022-11-28T23:31:16.166Z,5.18
2022-11-28T23:33:42.569Z,5.20
2022-11-28T23:36:15.757Z,5.19
2022-11-28T23:38:42.731Z,5.17
2022-11-28T23:41:09.184Z,5.18
2022-11-28T23:43:35.542Z,5.17
2022-11-28T23:46:02.099Z,5.18
2022-11-28T23:48:28.486Z,5.19
2022-11-28T23:50:54.851Z,5.19
2022-11-28T23:53:21.186Z,5.19
2022-11-28T23:55:47.540Z,5.17
2022-11-28T23:58:17.276Z,5.18
